Time;durP1;ratioP1;P1;durP2;ratioP2;P2;SDS_P1;SDS_P2;PMS_P1;PMS_P2;Temp;Humidity;BMP_temperature;BMP_pressure;BME280_temperature;BME280_humidity;BME280_pressure;Samples;Min_cycle;Max_cycle;Signal;HPM_P1;HPM_P2
2024/04/02 00:00:43;;;;;;;4.68;2.83;;;19.80;99.90;;;;;;5033607;28;20103;-57
2024/04/02 00:03:11;;;;;;;7.20;2.95;;;19.80;99.90;;;;;;5033270;28;20032;-56
2024/04/02 00:05:39;;;;;;;6.32;2.67;;;19.80;99.90;;;;;;5033261;28;20496;-57
2024/04/02 00:08:08;;;;;;;5.07;2.95;;;19.80;99.90;;;;;;5033103;28;20500;-57
2024/04/02 00:10:36;;;;;;;3.65;2.60;;;19.80;99.90;;;;;;5033228;28;20056;-58
2024/04/02 00:13:03;;;;;;;6.13;3.00;;;19.80;99.90;;;;;;5015386;28;20037;-58
2024/04/02 00:15:29;;;;;;;6.47;3.03;;;19.80;99.90;;;;;;5033182;28;20017;-58
2024/04/02 00:17:55;;;;;;;5.10;2.75;;;19.70;99.90;;;;;;5033099;28;20036;-57
2024/04/02 00:20:22;;;;;;;6.80;2.70;;;19.70;99.90;;;;;;5015415;28;20026;-58
2024/04/02 00:22:48;;;;;;;4.25;2.67;;;19.70;99.90;;;;;;5033147;28;20104;-57
2024/04/02 00:25:14;;;;;;;4.90;2.70;;;19.70;99.90;;;;;;5032996;28;20033;-58
2024/04/02 00:27:40;;;;;;;6.97;2.92;;;19.70;99.90;;;;;;5032646;28;20449;-57
2024/04/02 00:30:06;;;;;;;4.72;2.78;;;19.70;99.90;;;;;;5032948;28;20036;-58
2024/04/02 00:32:32;;;;;;;5.45;2.65;;;19.70;99.90;;;;;;5032894;28;20043;-58
2024/04/02 00:34:58;;;;;;;4.32;2.45;;;19.70;99.90;;;;;;5015177;28;20022;-58
2024/04/02 00:37:24;;;;;;;3.97;2.55;;;19.70;99.90;;;;;;5032822;28;20520;-58
2024/04/02 00:39:50;;;;;;;3.97;2.28;;;19.70;99.90;;;;;;5032784;28;20080;-58
2024/04/02 00:42:19;;;;;;;4.32;2.65;;;19.70;99.90;;;;;;5032463;28;20377;-58
2024/04/02 00:44:44;;;;;;;6.30;3.60;;;19.70;99.90;;;;;;5015047;28;20426;-58
2024/04/02 00:47:13;;;;;;;4.40;2.58;;;19.70;99.90;;;;;;5032431;28;20067;-57
2024/04/02 00:49:40;;;;;;;5.10;2.92;;;19.70;99.90;;;;;;5032408;28;20017;-58
2024/04/02 00:52:06;;;;;;;4.47;2.50;;;19.70;99.90;;;;;;5032470;28;20021;-58
2024/04/02 00:54:34;;;;;;;4.13;2.28;;;19.70;99.90;;;;;;5031092;28;20450;-57
2024/04/02 00:57:00;;;;;;;6.40;3.10;;;19.70;99.90;;;;;;5032346;28;20105;-58
2024/04/02 00:59:26;;;;;;;4.13;2.55;;;19.60;99.90;;;;;;5032307;28;20030;-57
2024/04/02 01:01:52;;;;;;;4.43;2.80;;;19.70;99.90;;;;;;5032887;28;20033;-57
2024/04/02 01:04:19;;;;;;;4.50;2.63;;;19.70;99.90;;;;;;5030960;28;20075;-57
2024/04/02 01:06:46;;;;;;;5.60;2.63;;;19.60;99.90;;;;;;5030825;28;20434;-57
2024/04/02 01:09:14;;;;;;;4.22;2.97;;;19.70;99.90;;;;;;5032080;28;20103;-57
2024/04/02 01:11:40;;;;;;;;;;;19.60;99.90;;;;;;5014994;28;20033;-56
2024/04/02 01:14:06;;;;;;;5.72;3.05;;;19.60;99.90;;;;;;5029799;28;20269;-57
2024/04/02 01:16:32;;;;;;;4.50;2.72;;;19.60;99.90;;;;;;5031921;28;20033;-57
2024/04/02 01:18:58;;;;;;;7.88;3.38;;;19.60;99.90;;;;;;5013988;28;20608;-57
2024/04/02 01:21:23;;;;;;;6.40;2.53;;;19.60;99.90;;;;;;5031933;28;20413;-57
2024/04/02 01:23:49;;;;;;;4.88;2.70;;;19.70;99.90;;;;;;5031858;28;20104;-57
2024/04/02 01:26:15;;;;;;;5.68;2.95;;;19.60;99.90;;;;;;5031676;28;20021;-58
2024/04/02 01:28:41;;;;;;;4.75;3.03;;;19.60;99.90;;;;;;5031929;28;20045;-57
2024/04/02 01:31:06;;;;;;;5.43;2.75;;;19.60;99.90;;;;;;5030676;28;20045;-58
2024/04/02 01:33:32;;;;;;;7.25;2.97;;;19.60;99.90;;;;;;5030996;28;20029;-57
2024/04/02 01:35:58;;;;;;;5.57;2.60;;;19.60;99.90;;;;;;5031930;28;20088;-57
2024/04/02 01:38:24;;;;;;;4.05;2.42;;;19.60;99.90;;;;;;5031709;28;20025;-57
2024/04/02 01:40:51;;;;;;;5.25;2.92;;;19.60;99.90;;;;;;5031883;28;20025;-58
2024/04/02 01:43:17;;;;;;;4.55;2.78;;;19.60;99.90;;;;;;5031814;28;20026;-57
2024/04/02 01:45:43;;;;;;;5.30;3.00;;;19.60;99.90;;;;;;5031885;28;20030;-57
2024/04/02 01:48:08;;;;;;;4.93;3.10;;;19.60;99.90;;;;;;5014206;28;20033;-57
2024/04/02 01:50:34;;;;;;;4.32;2.95;;;19.60;99.90;;;;;;5031681;28;20033;-57
2024/04/02 01:53:00;;;;;;;4.75;2.63;;;19.60;99.90;;;;;;5031760;28;20115;-57
2024/04/02 01:55:26;;;;;;;5.90;2.55;;;19.60;99.90;;;;;;5031568;28;20042;-57
2024/04/02 01:57:51;;;;;;;4.40;2.70;;;19.60;99.90;;;;;;5031769;28;20145;-57
2024/04/02 02:00:18;;;;;;;5.32;2.92;;;19.60;99.90;;;;;;5032246;28;20497;-57
2024/04/02 02:02:44;;;;;;;4.65;2.60;;;19.60;99.90;;;;;;5031791;28;20033;-57
2024/04/02 02:05:10;;;;;;;5.15;2.50;;;19.60;99.90;;;;;;5031936;28;20048;-58
2024/04/02 02:07:37;;;;;;;4.28;2.70;;;19.60;99.90;;;;;;5031323;28;20046;-58
2024/04/02 02:10:03;;;;;;;5.80;3.10;;;19.60;99.90;;;;;;5031556;28;20433;-57
2024/04/02 02:12:28;;;;;;;2.90;2.28;;;19.60;99.90;;;;;;5031527;28;20112;-58
2024/04/02 02:14:54;;;;;;;3.97;2.58;;;19.60;99.90;;;;;;5013768;28;20029;-58
2024/04/02 02:17:20;;;;;;;4.50;2.45;;;19.60;99.90;;;;;;5031556;28;20043;-57
2024/04/02 02:19:46;;;;;;;5.05;2.67;;;19.60;99.90;;;;;;5031618;28;20033;-57
2024/04/02 02:22:12;;;;;;;6.93;3.08;;;19.50;99.90;;;;;;5031822;28;20021;-57
2024/04/02 02:24:38;;;;;;;4.63;2.80;;;19.50;99.90;;;;;;5033345;28;20029;-58
2024/04/02 02:27:04;;;;;;;3.88;2.60;;;19.50;99.90;;;;;;5017529;28;20526;-57
2024/04/02 02:29:30;;;;;;;5.13;2.92;;;19.50;99.90;;;;;;5033271;28;20493;-57
2024/04/02 02:31:56;;;;;;;4.10;2.78;;;19.50;99.90;;;;;;5032834;28;20029;-57
2024/04/02 02:34:21;;;;;;;3.78;2.55;;;19.50;99.90;;;;;;5034956;28;20438;-58
2024/04/02 02:36:47;;;;;;;6.05;2.92;;;19.50;99.90;;;;;;5035042;28;20132;-57
2024/04/02 02:39:13;;;;;;;4.15;2.60;;;19.50;99.90;;;;;;5035147;28;20100;-57
2024/04/02 02:41:40;;;;;;;4.32;2.55;;;19.50;99.90;;;;;;5034903;28;20152;-57
2024/04/02 02:44:06;;;;;;;5.00;2.92;;;19.50;99.90;;;;;;5034921;28;20025;-58
2024/04/02 02:46:32;;;;;;;6.15;3.03;;;19.50;99.90;;;;;;5034913;28;20036;-58
2024/04/02 02:49:00;;;;;;;5.40;2.70;;;19.50;99.90;;;;;;5034722;28;20040;-58
2024/04/02 02:51:26;;;;;;;7.25;3.70;;;19.50;99.90;;;;;;5034720;28;20032;-57
2024/04/02 02:53:52;;;;;;;4.75;3.00;;;19.40;99.90;;;;;;5016752;28;20026;-57
2024/04/02 02:56:19;;;;;;;4.60;2.67;;;19.50;99.90;;;;;;5034880;28;20022;-58
2024/04/02 02:58:51;;;;;;;4.67;2.77;;;19.40;99.90;;;;;;5034879;28;20034;-58
2024/04/02 03:01:18;;;;;;;5.85;2.50;;;19.50;99.90;;;;;;5053338;23;20650;-48
2024/04/02 03:03:47;;;;;;;5.13;3.00;;;19.50;99.90;;;;;;5036913;28;20480;-48
2024/04/02 03:06:13;;;;;;;6.63;3.08;;;19.50;99.90;;;;;;5054504;28;20033;-52
2024/04/02 03:08:40;;;;;;;4.43;3.08;;;19.50;99.90;;;;;;5054295;28;20082;-48
2024/04/02 03:11:06;;;;;;;5.40;3.63;;;19.40;99.90;;;;;;5054329;28;20396;-48
2024/04/02 03:13:33;;;;;;;4.30;2.90;;;19.40;99.90;;;;;;5054319;28;20079;-48
2024/04/02 03:16:01;;;;;;;5.63;2.88;;;19.40;99.90;;;;;;5054178;28;20036;-48
2024/04/02 03:18:27;;;;;;;8.88;3.05;;;19.40;99.90;;;;;;5054022;28;20388;-48
2024/04/02 03:20:53;;;;;;;5.75;3.38;;;19.40;99.90;;;;;;5053999;28;20465;-48
2024/04/02 03:23:21;;;;;;;5.82;2.58;;;19.40;99.90;;;;;;5054180;28;20030;-48
2024/04/02 03:26:02;;;;;;;4.53;2.67;;;19.40;99.90;;;;;;5054153;28;20048;-48
2024/04/02 03:28:33;;;;;;;7.22;2.83;;;19.40;99.90;;;;;;5054081;28;20029;-48
2024/04/02 03:31:03;;;;;;;7.45;3.03;;;19.40;99.90;;;;;;5036383;28;20101;-48
2024/04/02 03:33:30;;;;;;;8.25;3.42;;;19.40;99.90;;;;;;5054096;28;20021;-48
2024/04/02 03:36:04;;;;;;;7.30;2.90;;;19.40;99.90;;;;;;5053271;28;20096;-48
2024/04/02 03:38:30;;;;;;;4.75;2.95;;;19.40;99.90;;;;;;5053787;28;20032;-48
2024/04/02 03:41:16;;;;;;;4.75;2.70;;;19.40;99.90;;;;;;5036101;28;20027;-48
2024/04/02 03:43:42;;;;;;;4.57;2.47;;;19.30;99.90;;;;;;5035719;28;20037;-48
2024/04/02 03:46:09;;;;;;;4.57;2.78;;;19.30;99.90;;;;;;5053758;28;20514;-48
2024/04/02 03:48:36;;;;;;;4.97;2.88;;;19.40;99.90;;;;;;5053621;28;20083;-48
2024/04/02 03:51:02;;;;;;;4.43;2.88;;;19.30;99.90;;;;;;5053453;28;20025;-47
2024/04/02 03:53:28;;;;;;;4.93;2.78;;;19.30;99.90;;;;;;5053427;28;20025;-47
2024/04/02 03:56:03;;;;;;;6.10;2.75;;;19.30;99.90;;;;;;5053447;28;20527;-47
2024/04/02 03:58:29;;;;;;;4.35;2.88;;;19.30;99.90;;;;;;5053498;28;20027;-49
2024/04/02 04:00:56;;;;;;;6.73;2.67;;;19.30;99.90;;;;;;5053771;28;20047;-48
2024/04/02 04:03:23;;;;;;;7.20;3.40;;;19.30;99.90;;;;;;5053453;28;20392;-48
2024/04/02 04:05:57;;;;;;;3.42;2.50;;;19.30;99.90;;;;;;5053365;28;20052;-48
2024/04/02 04:08:23;;;;;;;12.45;3.13;;;19.30;99.90;;;;;;5053046;28;20040;-48
2024/04/02 04:10:49;;;;;;;5.20;3.10;;;19.30;99.90;;;;;;5053508;28;20025;-48
2024/04/02 04:13:14;;;;;;;5.80;3.53;;;19.30;99.90;;;;;;5035466;28;20104;-48
2024/04/02 04:15:40;;;;;;;4.15;2.65;;;19.30;99.90;;;;;;5052978;28;20477;-48
2024/04/02 04:18:06;;;;;;;5.22;3.47;;;19.30;99.90;;;;;;5052994;28;20756;-48
2024/04/02 04:20:34;;;;;;;5.15;3.08;;;19.30;99.90;;;;;;5052917;28;20032;-48
2024/04/02 04:23:00;;;;;;;6.78;3.63;;;19.30;99.90;;;;;;5034905;28;20029;-48
2024/04/02 04:25:25;;;;;;;4.95;3.30;;;19.20;99.90;;;;;;5052798;28;20166;-48
2024/04/02 04:27:51;;;;;;;6.65;3.10;;;19.20;99.90;;;;;;5052862;28;20037;-48
2024/04/02 04:30:17;;;;;;;7.57;3.70;;;19.30;99.90;;;;;;5053098;28;20099;-48
2024/04/02 04:32:43;;;;;;;6.53;3.88;;;19.20;99.90;;;;;;5052778;28;20102;-48
2024/04/02 04:35:09;;;;;;;4.95;3.53;;;19.20;99.90;;;;;;5052708;28;20056;-48
2024/04/02 04:37:35;;;;;;;4.53;3.15;;;19.20;99.90;;;;;;5052430;28;20028;-48
2024/04/02 04:40:01;;;;;;;6.93;3.70;;;19.20;99.90;;;;;;5052557;28;20072;-48
2024/04/02 04:42:26;;;;;;;9.23;3.80;;;19.20;99.90;;;;;;5052726;28;20025;-48
2024/04/02 04:44:52;;;;;;;7.07;3.80;;;19.20;99.90;;;;;;5052559;28;20013;-49
2024/04/02 04:47:18;;;;;;;8.93;4.32;;;19.10;99.90;;;;;;5051923;28;20075;-48
2024/04/02 04:49:44;;;;;;;7.68;4.60;;;19.20;99.90;;;;;;5052165;28;20029;-48
2024/04/02 04:52:11;;;;;;;8.82;4.35;;;19.20;99.90;;;;;;5052350;28;20060;-48
2024/04/02 04:54:37;;;;;;;7.78;4.60;;;19.20;99.90;;;;;;5052370;28;20029;-49
2024/04/02 04:57:03;;;;;;;11.35;4.30;;;19.20;99.90;;;;;;5052342;28;20079;-47
2024/04/02 04:59:28;;;;;;;7.32;4.28;;;19.10;99.90;;;;;;5052347;28;20025;-47
2024/04/02 05:01:54;;;;;;;9.32;4.03;;;19.20;99.90;;;;;;5050226;28;20029;-48
2024/04/02 05:04:20;;;;;;;8.18;3.70;;;19.20;99.90;;;;;;5052467;28;20169;-48
2024/04/02 05:06:47;;;;;;;10.40;4.28;;;19.20;99.90;;;;;;5052171;28;20391;-48
2024/04/02 05:09:13;;;;;;;8.13;4.30;;;19.10;99.90;;;;;;5052208;28;20358;-48
2024/04/02 05:11:40;;;;;;;7.82;4.28;;;19.10;99.90;;;;;;5052203;28;20027;-48
2024/04/02 05:14:06;;;;;;;7.43;4.30;;;19.10;99.90;;;;;;5051558;28;20111;-48
2024/04/02 05:16:35;;;;;;;8.85;4.50;;;19.10;99.90;;;;;;5051702;28;20032;-48
2024/04/02 05:19:04;;;;;;;7.60;4.13;;;19.10;99.90;;;;;;5052061;28;20499;-48
2024/04/02 05:21:30;;;;;;;7.25;4.45;;;19.10;99.90;;;;;;5052113;28;20091;-48
2024/04/02 05:23:56;;;;;;;8.27;4.63;;;19.10;99.90;;;;;;5052087;28;20060;-48
2024/04/02 05:26:23;;;;;;;6.90;3.63;;;19.10;99.90;;;;;;5052151;28;20092;-48
2024/04/02 05:28:48;;;;;;;11.98;4.75;;;19.10;99.90;;;;;;5051936;28;20049;-48
2024/04/02 05:31:15;;;;;;;11.38;5.13;;;19.10;99.90;;;;;;5051988;28;20601;-48
2024/04/02 05:33:42;;;;;;;8.52;4.10;;;19.00;99.90;;;;;;5051894;28;20128;-47
2024/04/02 05:36:08;;;;;;;9.60;4.45;;;19.10;99.90;;;;;;5052006;28;20029;-48
2024/04/02 05:38:33;;;;;;;9.55;4.72;;;19.10;99.90;;;;;;5051937;28;20025;-48
2024/04/02 05:40:59;;;;;;;11.40;4.25;;;19.00;99.90;;;;;;5033962;28;20036;-47
2024/04/02 05:43:26;;;;;;;8.00;4.43;;;19.00;99.90;;;;;;5051830;28;20523;-48
2024/04/02 05:45:53;;;;;;;8.68;4.65;;;19.00;99.90;;;;;;5052019;28;20075;-48
2024/04/02 05:48:19;;;;;;;8.57;4.13;;;19.00;99.90;;;;;;5051524;28;20116;-49
2024/04/02 05:50:55;;;;;;;6.75;3.95;;;19.00;99.90;;;;;;5050505;28;20049;-47
2024/04/02 05:53:21;;;;;;;7.70;3.80;;;19.00;99.90;;;;;;5050814;28;20025;-48
2024/04/02 05:55:47;;;;;;;8.18;4.20;;;19.00;99.90;;;;;;5051664;28;20052;-48
2024/04/02 05:58:13;;;;;;;8.23;4.18;;;19.00;99.90;;;;;;5051719;28;20071;-48
2024/04/02 06:00:39;;;;;;;10.10;4.00;;;19.00;99.90;;;;;;5054892;28;20036;-48
2024/04/02 06:03:05;;;;;;;9.55;4.03;;;19.00;99.90;;;;;;5055430;28;20029;-48
2024/04/02 06:05:32;;;;;;;5.65;3.80;;;19.00;99.90;;;;;;5055374;28;20052;-48
2024/04/02 06:07:58;;;;;;;8.07;3.70;;;19.00;99.90;;;;;;5054014;28;20087;-49
2024/04/02 06:10:26;;;;;;;6.45;4.00;;;19.00;99.90;;;;;;5055747;28;20032;-48
2024/04/02 06:12:52;;;;;;;7.20;3.70;;;19.00;99.90;;;;;;5037853;28;20032;-48
2024/04/02 06:15:18;;;;;;;10.88;4.72;;;19.00;99.90;;;;;;5055364;28;20370;-49
2024/04/02 06:17:44;;;;;;;6.68;3.55;;;19.00;99.90;;;;;;5054270;28;20047;-48
2024/04/02 06:20:10;;;;;;;7.35;3.65;;;19.00;99.90;;;;;;5037357;28;20549;-48
2024/04/02 06:22:37;;;;;;;9.13;3.70;;;19.00;99.90;;;;;;5055333;28;20025;-49
2024/04/02 06:25:03;;;;;;;7.13;4.03;;;19.00;99.90;;;;;;5055439;28;20377;-49
2024/04/02 06:27:28;;;;;;;7.60;3.55;;;19.00;99.90;;;;;;5055091;28;20036;-48
2024/04/02 06:29:54;;;;;;;7.53;3.67;;;19.00;99.90;;;;;;5037401;28;20013;-48
2024/04/02 06:32:21;;;;;;;6.90;3.85;;;19.00;99.90;;;;;;5055037;28;20358;-49
2024/04/02 06:34:47;;;;;;;5.80;3.47;;;19.00;99.90;;;;;;5037084;28;20017;-48
2024/04/02 06:37:12;;;;;;;7.45;4.03;;;19.00;99.90;;;;;;5054951;28;20036;-49
2024/04/02 06:39:38;;;;;;;6.57;3.40;;;19.00;99.90;;;;;;5055006;28;20124;-49
2024/04/02 06:42:04;;;;;;;8.13;4.22;;;19.00;99.90;;;;;;5054758;28;20112;-48
2024/04/02 06:44:30;;;;;;;7.50;3.50;;;19.00;99.90;;;;;;5054802;28;20053;-48
2024/04/02 06:46:56;;;;;;;6.90;3.85;;;19.00;99.90;;;;;;5036996;28;20573;-49
2024/04/02 06:49:22;;;;;;;7.63;3.65;;;19.00;99.90;;;;;;5054808;28;20028;-49
2024/04/02 06:51:48;;;;;;;7.70;3.75;;;19.00;99.90;;;;;;5054604;28;20028;-49
2024/04/02 06:54:15;;;;;;;8.25;3.45;;;19.00;99.90;;;;;;5054679;28;20053;-48
2024/04/02 06:56:41;;;;;;;7.57;4.32;;;19.00;99.90;;;;;;5054728;28;20028;-49
2024/04/02 06:59:06;;;;;;;4.88;3.17;;;19.00;99.90;;;;;;5054664;28;20029;-48
2024/04/02 07:01:32;;;;;;;7.88;3.92;;;19.00;99.90;;;;;;5054475;28;20049;-48
2024/04/02 07:03:58;;;;;;;6.32;3.20;;;19.00;99.90;;;;;;5054680;28;20025;-49
2024/04/02 07:06:24;;;;;;;7.07;3.47;;;19.00;99.90;;;;;;5054274;28;20103;-48
2024/04/02 07:08:49;;;;;;;5.95;3.25;;;19.00;99.90;;;;;;5054279;28;20044;-49
2024/04/02 07:11:15;;;;;;;4.85;2.90;;;19.00;99.90;;;;;;5053270;28;20269;-48
2024/04/02 07:13:41;;;;;;;6.80;3.60;;;19.00;99.90;;;;;;5054104;28;20078;-49
2024/04/02 07:16:07;;;;;;;7.03;3.25;;;19.00;99.90;;;;;;5054108;28;20028;-48
2024/04/02 07:18:36;;;;;;;6.38;3.13;;;19.10;99.90;;;;;;5054093;28;20025;-48
2024/04/02 07:21:06;;;;;;;6.20;3.28;;;19.10;99.90;;;;;;5054031;28;20078;-48
2024/04/02 07:23:33;;;;;;;6.38;3.47;;;19.00;99.90;;;;;;5054158;28;20017;-48
2024/04/02 07:25:59;;;;;;;6.43;3.30;;;19.10;99.90;;;;;;5036362;28;20052;-48
2024/04/02 07:28:26;;;;;;;4.72;3.08;;;19.00;99.90;;;;;;5036389;28;20289;-48
2024/04/02 07:30:52;;;;;;;4.68;3.20;;;19.00;99.90;;;;;;5053954;28;20040;-48
2024/04/02 07:33:18;;;;;;;6.90;4.03;;;19.10;99.90;;;;;;5053886;28;20052;-48
2024/04/02 07:35:44;;;;;;;5.45;3.17;;;19.10;99.90;;;;;;5053904;28;20033;-48
2024/04/02 07:38:11;;;;;;;5.10;3.45;;;19.10;99.90;;;;;;5053768;28;20021;-48
2024/04/02 07:40:37;;;;;;;8.40;3.90;;;19.10;99.90;;;;;;5053731;28;20040;-49
2024/04/02 07:43:05;;;;;;;7.03;3.88;;;19.00;99.90;;;;;;5053466;28;20143;-48
2024/04/02 07:45:32;;;;;;;7.13;3.85;;;19.10;99.90;;;;;;5053756;28;20025;-48
2024/04/02 07:47:58;;;;;;;6.03;3.28;;;19.00;99.90;;;;;;5019464;28;20467;-48
2024/04/02 07:50:28;;;;;;;5.60;2.65;;;19.10;99.90;;;;;;5035679;28;20116;-48
2024/04/02 07:52:54;;;;;;;6.40;3.13;;;19.10;99.90;;;;;;5035794;28;20037;-49
2024/04/02 07:55:20;;;;;;;7.55;3.83;;;19.10;99.90;;;;;;5053443;28;20021;-49
2024/04/02 07:57:45;;;;;;;5.45;3.20;;;19.10;99.90;;;;;;5035458;28;20040;-48
2024/04/02 08:00:12;;;;;;;7.10;3.88;;;19.10;99.90;;;;;;5053436;28;20478;-49
2024/04/02 08:02:37;;;;;;;5.47;3.28;;;19.10;99.90;;;;;;5053037;28;20497;-48
2024/04/02 08:05:04;;;;;;;5.57;3.47;;;19.10;99.90;;;;;;5053149;28;20079;-48
2024/04/02 08:07:29;;;;;;;5.35;3.03;;;19.10;99.90;;;;;;5053263;28;20091;-48
2024/04/02 08:09:55;;;;;;;5.60;2.83;;;19.10;99.90;;;;;;5053101;28;20029;-49
2024/04/02 08:12:21;;;;;;;5.80;3.08;;;19.20;99.90;;;;;;5053076;28;20056;-48
2024/04/02 08:14:47;;;;;;;6.13;3.67;;;19.10;99.90;;;;;;5053139;28;20100;-49
2024/04/02 08:17:15;;;;;;;6.78;3.35;;;19.20;99.90;;;;;;5053078;28;20431;-48
2024/04/02 08:19:44;;;;;;;5.72;3.58;;;19.20;99.90;;;;;;5053139;28;20370;-49
2024/04/02 08:22:10;;;;;;;6.53;3.60;;;19.20;99.90;;;;;;5052870;28;20031;-48
2024/04/02 08:24:36;;;;;;;8.27;4.00;;;19.20;99.90;;;;;;5035119;28;20412;-48
2024/04/02 08:27:05;;;;;;;6.75;3.38;;;19.20;99.90;;;;;;5053141;28;20108;-48
2024/04/02 08:29:31;;;;;;;7.05;3.60;;;19.10;99.90;;;;;;5053051;28;20021;-48
2024/04/02 08:31:57;;;;;;;8.27;4.00;;;19.10;99.90;;;;;;5053073;28;20078;-48
2024/04/02 08:34:23;;;;;;;7.18;3.33;;;19.20;99.90;;;;;;5053275;28;20380;-48
2024/04/02 08:36:49;;;;;;;6.43;4.10;;;19.20;99.90;;;;;;5052777;28;20480;-49
2024/04/02 08:39:14;;;;;;;7.30;3.47;;;19.20;99.90;;;;;;5051356;28;20025;-49
2024/04/02 08:41:41;;;;;;;9.02;4.00;;;19.20;99.90;;;;;;5052623;28;20021;-49
2024/04/02 08:44:07;;;;;;;8.27;3.97;;;19.20;99.90;;;;;;5052601;28;20027;-49
2024/04/02 08:46:33;;;;;;;7.50;3.95;;;19.20;99.90;;;;;;5052812;28;20112;-49
2024/04/02 08:48:59;;;;;;;6.45;3.45;;;19.20;99.90;;;;;;5052414;28;20104;-48
2024/04/02 08:51:29;;;;;;;7.32;3.45;;;19.20;99.90;;;;;;5052388;28;20495;-48
2024/04/02 08:53:57;;;;;;;6.60;3.80;;;19.20;99.90;;;;;;5034501;28;20057;-48
2024/04/02 08:56:23;;;;;;;6.53;2.85;;;19.20;99.90;;;;;;5034688;28;20021;-48
2024/04/02 08:58:51;;;;;;;8.93;4.35;;;19.20;99.90;;;;;;5052414;28;20037;-48
2024/04/02 09:01:19;;;;;;;6.53;3.65;;;19.20;99.90;;;;;;5052423;28;20382;-49
2024/04/02 09:03:46;;;;;;;7.60;3.70;;;19.20;99.90;;;;;;5052319;28;20029;-48
2024/04/02 09:06:13;;;;;;;7.22;3.67;;;19.20;99.90;;;;;;5052273;28;20070;-48
2024/04/02 09:08:48;;;;;;;7.57;3.75;;;19.20;99.90;;;;;;5052207;28;20040;-48
2024/04/02 09:11:14;;;;;;;7.93;3.70;;;19.20;99.90;;;;;;5052105;28;20075;-49
2024/04/02 09:13:41;;;;;;;6.97;4.03;;;19.30;99.90;;;;;;5052173;28;20495;-49
2024/04/02 09:16:07;;;;;;;7.15;3.53;;;19.30;99.90;;;;;;5034219;28;20033;-49
2024/04/02 09:18:37;;;;;;;6.07;3.83;;;19.30;99.90;;;;;;5052198;28;20021;-48
2024/04/02 09:21:03;;;;;;;8.68;3.83;;;19.30;99.90;;;;;;5052258;28;20048;-48
2024/04/02 09:23:30;;;;;;;5.30;3.47;;;19.30;99.90;;;;;;5052009;28;20028;-48
2024/04/02 09:25:56;;;;;;;5.47;3.53;;;19.30;99.90;;;;;;5052036;28;20021;-48
2024/04/02 09:28:22;;;;;;;4.55;3.35;;;19.30;99.90;;;;;;5051621;28;20091;-48
2024/04/02 09:30:48;;;;;;;6.28;3.15;;;19.30;99.90;;;;;;5051947;28;20436;-49
2024/04/02 09:33:16;;;;;;;7.43;3.33;;;19.30;99.90;;;;;;5052348;28;20059;-48
2024/04/02 09:35:48;;;;;;;;;;;19.30;99.90;;;;;;5058699;28;20017;-48
2024/04/02 09:38:16;;;;;;;6.47;3.45;;;19.30;99.90;;;;;;5058538;28;19909;-48
2024/04/02 09:40:43;;;;;;;7.57;3.45;;;19.30;99.90;;;;;;5058507;28;20059;-48
2024/04/02 09:43:13;;;;;;;8.20;4.13;;;19.30;99.90;;;;;;5058515;28;20032;-48
2024/04/02 09:45:39;;;;;;;7.22;3.75;;;19.30;99.90;;;;;;5058514;28;20025;-48
2024/04/02 09:48:07;;;;;;;5.45;3.80;;;19.30;99.90;;;;;;5058650;28;20044;-48
2024/04/02 09:50:35;;;;;;;6.22;3.45;;;19.30;99.90;;;;;;5058440;28;20059;-48
2024/04/02 09:53:00;;;;;;;7.00;4.10;;;19.30;99.90;;;;;;5057121;28;20033;-48
2024/04/02 09:55:28;;;;;;;5.88;3.58;;;19.30;99.90;;;;;;5058437;28;20025;-48
2024/04/02 09:57:55;;;;;;;7.63;3.90;;;19.30;99.90;;;;;;5058409;28;20083;-48
2024/04/02 10:00:20;;;;;;;5.70;3.58;;;19.30;99.90;;;;;;5040386;28;20085;-48
2024/04/02 10:02:49;;;;;;;7.22;4.15;;;19.40;99.90;;;;;;5058167;28;20524;-48
2024/04/02 10:05:22;;;;;;;6.95;4.25;;;19.40;99.90;;;;;;5058473;28;20017;-48
2024/04/02 10:07:50;;;;;;;5.88;3.22;;;19.40;99.90;;;;;;5058068;28;20362;-49
2024/04/02 10:10:17;;;;;;;7.63;3.15;;;19.40;99.90;;;;;;5058184;28;20424;-48
2024/04/02 10:12:48;;;;;;;6.65;3.45;;;19.40;99.90;;;;;;5058134;28;20044;-49
2024/04/02 10:15:17;;;;;;;8.35;3.35;;;19.40;99.90;;;;;;5058204;28;20024;-48
2024/04/02 10:17:43;;;;;;;6.18;3.53;;;19.40;99.90;;;;;;5058203;28;20032;-48
2024/04/02 10:20:25;;;;;;;6.78;3.33;;;19.40;99.90;;;;;;5058288;28;20021;-48
2024/04/02 10:22:57;;;;;;;5.05;3.10;;;19.40;99.90;;;;;;5058261;28;20024;-48
2024/04/02 10:25:25;;;;;;;5.80;4.07;;;19.40;99.90;;;;;;5058071;28;20481;-48
2024/04/02 10:27:57;;;;;;;6.60;3.80;;;19.40;99.90;;;;;;5058157;28;20068;-48
2024/04/02 10:30:25;;;;;;;6.72;3.67;;;19.50;99.90;;;;;;5057959;28;20028;-47
2024/04/02 10:32:52;;;;;;;5.78;3.50;;;19.50;99.90;;;;;;5040394;28;20139;-48
2024/04/02 10:35:22;;;;;;;4.83;3.70;;;19.50;99.90;;;;;;5058166;28;20032;-48
2024/04/02 10:37:49;;;;;;;6.50;3.60;;;19.50;99.90;;;;;;5057885;28;20097;-48
2024/04/02 10:40:16;;;;;;;4.45;3.33;;;19.60;99.90;;;;;;5057975;28;20035;-48
2024/04/02 10:42:44;;;;;;;3.78;2.88;;;19.60;99.90;;;;;;5058018;28;20508;-48
2024/04/02 10:45:10;;;;;;;4.85;3.58;;;19.60;99.90;;;;;;5057238;28;20020;-48
2024/04/02 10:47:36;;;;;;;7.57;4.18;;;19.60;99.90;;;;;;5054867;28;20069;-48
2024/04/02 10:50:05;;;;;;;9.25;4.70;;;19.70;99.90;;;;;;5054801;28;20371;-48
2024/04/02 10:52:37;;;;;;;8.93;5.15;;;19.70;99.90;;;;;;5054679;28;20059;-48
2024/04/02 10:55:06;;;;;;;6.05;4.55;;;19.70;99.90;;;;;;5053380;28;20439;-48
2024/04/02 10:57:35;;;;;;;7.40;4.43;;;19.70;99.90;;;;;;5036571;28;20370;-48
2024/04/02 11:00:04;;;;;;;7.30;4.93;;;19.70;99.90;;;;;;5054576;28;20040;-49
2024/04/02 11:02:33;;;;;;;9.77;5.20;;;19.70;99.90;;;;;;5054486;28;20045;-48
2024/04/02 11:05:00;;;;;;;8.93;5.60;;;19.80;99.90;;;;;;5054444;28;20040;-48
2024/04/02 11:07:29;;;;;;;9.43;5.00;;;19.80;99.90;;;;;;5054382;28;20029;-49
2024/04/02 11:09:56;;;;;;;10.70;5.90;;;19.80;99.90;;;;;;5054454;28;20036;-49
2024/04/02 11:12:23;;;;;;;11.52;6.50;;;19.80;99.90;;;;;;5054396;28;20079;-48
2024/04/02 11:14:53;;;;;;;17.95;8.25;;;19.90;99.90;;;;;;5054336;28;20033;-48
2024/04/02 11:17:20;;;;;;;12.63;8.00;;;19.90;99.90;;;;;;5054247;28;20029;-48
2024/04/02 11:19:46;;;;;;;15.57;8.45;;;19.90;99.90;;;;;;5054096;28;20051;-49
2024/04/02 11:25:14;;;;;;;15.25;8.68;;;19.90;99.90;;;;;;5054210;28;20041;-48
2024/04/02 11:27:41;;;;;;;16.25;8.45;;;20.00;99.90;;;;;;5053902;28;20029;-49
2024/04/02 11:30:08;;;;;;;13.23;7.85;;;20.00;99.90;;;;;;5054005;28;20079;-49
2024/04/02 11:32:35;;;;;;;12.60;7.63;;;20.00;99.90;;;;;;5053957;28;20466;-49
2024/04/02 11:35:02;;;;;;;15.05;8.77;;;20.00;99.90;;;;;;5053951;28;20025;-49
2024/04/02 11:37:29;;;;;;;13.13;8.47;;;20.00;99.90;;;;;;5053887;28;20025;-49
2024/04/02 11:39:55;;;;;;;20.63;8.10;;;20.10;99.90;;;;;;5053785;28;20029;-48
2024/04/02 11:42:22;;;;;;;14.63;7.57;;;20.10;99.90;;;;;;5053622;28;20056;-49
2024/04/02 11:44:49;;;;;;;13.77;7.63;;;20.10;99.90;;;;;;5035699;28;20025;-49
2024/04/02 11:47:15;;;;;;;12.88;8.25;;;20.10;99.90;;;;;;5053712;28;20375;-49
2024/04/02 11:49:41;;;;;;;14.00;8.00;;;20.10;99.90;;;;;;5036058;28;20517;-49
2024/04/02 11:52:08;;;;;;;12.68;7.30;;;20.20;99.90;;;;;;5053500;28;20384;-49
2024/04/02 11:54:34;;;;;;;13.43;7.65;;;20.20;99.90;;;;;;5050296;28;20017;-48
2024/04/02 12:02:38;;;;;;;14.00;6.05;;;20.20;99.90;;;;;;5043698;28;20056;-47
2024/04/02 12:05:05;;;;;;;19.65;5.80;;;20.30;99.90;;;;;;5051716;28;20392;-47
2024/04/02 12:07:31;;;;;;;12.40;6.05;;;20.40;99.90;;;;;;5052819;28;20025;-47
2024/04/02 12:09:58;;;;;;;9.40;4.40;;;20.40;99.90;;;;;;5052660;28;20021;-49
2024/04/02 12:12:24;;;;;;;10.88;5.30;;;20.40;99.90;;;;;;5052129;28;20017;-48
2024/04/02 12:14:51;;;;;;;12.43;4.25;;;20.40;99.90;;;;;;5052560;28;20028;-49
2024/04/02 12:17:17;;;;;;;10.77;4.35;;;20.40;99.90;;;;;;5052872;28;20028;-49
2024/04/02 12:19:44;;;;;;;18.75;4.53;;;20.50;99.90;;;;;;5034263;28;20074;-48
2024/04/02 12:22:11;;;;;;;11.48;3.80;;;20.50;99.90;;;;;;5052268;28;20032;-48
2024/04/02 12:24:38;;;;;;;15.05;4.13;;;20.60;99.90;;;;;;5050767;28;20025;-47
2024/04/02 12:27:04;;;;;;;12.50;4.07;;;20.60;99.90;;;;;;5048860;28;20021;-47
2024/04/02 12:29:30;;;;;;;17.30;3.78;;;20.60;99.90;;;;;;5050092;28;20056;-47
2024/04/02 12:31:57;;;;;;;10.18;4.18;;;20.60;99.90;;;;;;5050265;28;20021;-48
2024/04/02 12:34:23;;;;;;;15.82;3.55;;;20.70;99.90;;;;;;5051796;28;20025;-48
2024/04/02 12:36:49;;;;;;;12.20;4.38;;;20.70;99.90;;;;;;5051307;28;20033;-47
2024/04/02 12:39:15;;;;;;;9.25;3.42;;;20.70;99.90;;;;;;5052139;28;20017;-47
2024/04/02 12:41:41;;;;;;;14.25;3.72;;;20.70;99.90;;;;;;5050630;28;20070;-48
2024/04/02 12:44:07;;;;;;;7.60;2.80;;;20.70;99.90;;;;;;5052106;28;20029;-48
2024/04/02 12:46:34;;;;;;;8.25;2.95;;;20.70;99.90;;;;;;5051191;28;20074;-47
2024/04/02 12:49:08;;;;;;;13.57;3.40;;;20.80;99.90;;;;;;5052340;28;20036;-48
2024/04/02 12:51:34;;;;;;;10.90;3.03;;;20.80;99.90;;;;;;5051684;28;20025;-48